Time;durP1;ratioP1;P1;durP2;ratioP2;P2;SDS_P1;SDS_P2;PMS_P1;PMS_P2;Temp;Humidity;BMP_temperature;BMP_pressure;BME280_temperature;BME280_humidity;BME280_pressure;Samples;Min_cycle;Max_cycle;Signal;HPM_P1;HPM_P2
2022/06/12 00:00:16;;;;;;;5.72;4.70;;;;;;;;;;5070829;28;20378;-53
2022/06/12 00:02:43;;;;;;;4.40;4.00;;;;;;;;;;5063476;28;20325;-53
2022/06/12 00:05:10;;;;;;;6.68;5.35;;;;;;;;;;5065664;28;20247;-53
2022/06/12 00:07:36;;;;;;;6.00;4.85;;;;;;;;;;5065435;28;20717;-54
2022/06/12 00:10:03;;;;;;;6.72;6.22;;;;;;;;;;5067582;28;20748;-54
2022/06/12 00:12:29;;;;;;;6.55;5.43;;;;;;;;;;5065047;28;20237;-53
2022/06/12 00:14:56;;;;;;;7.13;4.68;;;;;;;;;;5065441;28;20242;-53
2022/06/12 00:17:24;;;;;;;5.07;4.53;;;;;;;;;;5061169;28;21075;-53
2022/06/12 00:19:50;;;;;;;7.15;4.68;;;;;;;;;;5051894;28;20732;-53
2022/06/12 00:22:18;;;;;;;5.78;5.15;;;;;;;;;;5064033;28;20231;-53
2022/06/12 00:24:44;;;;;;;5.72;5.18;;;;;;;;;;5062216;28;20253;-53
2022/06/12 00:27:11;;;;;;;6.78;4.25;;;;;;;;;;5059589;28;20330;-54
2022/06/12 00:29:39;;;;;;;5.85;5.25;;;;;;;;;;5062374;28;20227;-53
2022/06/12 00:32:07;;;;;;;6.28;4.85;;;;;;;;;;5064297;28;20664;-53
2022/06/12 00:34:36;;;;;;;6.20;5.45;;;;;;;;;;5050283;28;20238;-53
2022/06/12 00:37:03;;;;;;;5.93;5.35;;;;;;;;;;5064356;28;20231;-54
2022/06/12 00:39:31;;;;;;;5.47;4.95;;;;;;;;;;5066562;28;20228;-54
2022/06/12 00:41:58;;;;;;;5.05;4.63;;;;;;;;;;5058757;28;20239;-53
2022/06/12 00:44:26;;;;;;;6.60;5.05;;;;;;;;;;5064293;28;20249;-52
2022/06/12 00:46:53;;;;;;;6.72;6.13;;;;;;;;;;5061541;28;20245;-54
2022/06/12 00:49:22;;;;;;;6.15;5.55;;;;;;;;;;5065652;28;20763;-54
2022/06/12 00:51:52;;;;;;;6.13;5.57;;;;;;;;;;5064200;28;20245;-53
2022/06/12 00:54:19;;;;;;;7.50;6.40;;;;;;;;;;5065329;28;20781;-53
2022/06/12 00:56:49;;;;;;;6.05;5.15;;;;;;;;;;5052886;28;20235;-54
2022/06/12 00:59:18;;;;;;;6.43;5.80;;;;;;;;;;5064149;28;20729;-53
2022/06/12 01:01:47;;;;;;;5.93;5.07;;;;;;;;;;5056530;28;20227;-54
2022/06/12 01:07:10;;;;;;;5.57;5.18;;;;;;;;;;5023353;28;20281;-55
2022/06/12 01:09:38;;;;;;;6.47;5.65;;;;;;;;;;5066159;28;20234;-53
2022/06/12 01:12:07;;;;;;;6.75;5.28;;;;;;;;;;5056104;28;21605;-53
2022/06/12 01:14:36;;;;;;;6.07;5.57;;;;;;;;;;5058908;28;20262;-53
2022/06/12 01:17:03;;;;;;;8.20;5.88;;;;;;;;;;5053955;28;20606;-53
2022/06/12 01:19:35;;;;;;;7.20;6.50;;;;;;;;;;5063076;28;20227;-52
2022/06/12 01:22:10;;;;;;;7.28;5.78;;;;;;;;;;5057700;28;20242;-53
2022/06/12 01:24:46;;;;;;;7.32;5.90;;;;;;;;;;5063287;28;20230;-53
2022/06/12 01:27:23;;;;;;;5.38;4.97;;;;;;;;;;5057788;28;20358;-53
2022/06/12 01:29:55;;;;;;;6.88;6.28;;;;;;;;;;5062410;28;20231;-53
2022/06/12 01:32:26;;;;;;;5.70;5.20;;;;;;;;;;5063266;28;20588;-54
2022/06/12 01:34:56;;;;;;;5.88;5.45;;;;;;;;;;5063352;28;20227;-54
2022/06/12 01:37:26;;;;;;;7.90;6.20;;;;;;;;;;5064560;28;20238;-54
2022/06/12 01:39:58;;;;;;;6.40;5.85;;;;;;;;;;5053896;28;20231;-54
2022/06/12 01:42:29;;;;;;;6.20;5.32;;;;;;;;;;5052645;28;20660;-53
2022/06/12 01:45:05;;;;;;;6.72;5.47;;;;;;;;;;5063326;28;20241;-53
2022/06/12 01:47:35;;;;;;;6.30;5.50;;;;;;;;;;5057868;28;20237;-54
2022/06/12 01:50:07;;;;;;;8.10;5.88;;;;;;;;;;5050868;28;20228;-54
2022/06/12 01:52:36;;;;;;;7.03;6.15;;;;;;;;;;5064617;28;20246;-53
2022/06/12 01:55:06;;;;;;;6.45;5.90;;;;;;;;;;5050428;28;20242;-53
2022/06/12 01:57:34;;;;;;;7.00;5.32;;;;;;;;;;5054100;28;20228;-54
2022/06/12 02:00:06;;;;;;;6.63;6.03;;;;;;;;;;5056652;28;20238;-53
2022/06/12 02:02:35;;;;;;;6.30;5.80;;;;;;;;;;5053480;28;20802;-55
2022/06/12 02:05:06;;;;;;;6.55;5.95;;;;;;;;;;5051125;28;20484;-53
2022/06/12 02:07:35;;;;;;;7.45;6.50;;;;;;;;;;5066169;28;20686;-54
2022/06/12 02:10:05;;;;;;;6.68;6.07;;;;;;;;;;5061981;28;20694;-53
2022/06/12 02:15:23;;;;;;;6.85;6.03;;;;;;;;;;5053724;28;20602;-54
2022/06/12 02:17:51;;;;;;;5.50;5.00;;;;;;;;;;5054405;28;20234;-53
2022/06/12 02:20:19;;;;;;;5.93;5.38;;;;;;;;;;5056928;28;20619;-53
2022/06/12 02:22:46;;;;;;;7.68;6.55;;;;;;;;;;5062593;28;20885;-53
2022/06/12 02:25:16;;;;;;;7.85;6.18;;;;;;;;;;5060602;28;20302;-54
2022/06/12 02:27:44;;;;;;;9.10;6.93;;;;;;;;;;5064518;28;20284;-53
2022/06/12 02:30:14;;;;;;;6.68;6.18;;;;;;;;;;5064742;28;20758;-53
2022/06/12 02:32:46;;;;;;;10.65;6.55;;;;;;;;;;5064455;28;20237;-53
2022/06/12 02:35:15;;;;;;;9.15;6.18;;;;;;;;;;5063886;28;20235;-54
2022/06/12 02:37:43;;;;;;;9.65;6.28;;;;;;;;;;5062395;28;20230;-54
2022/06/12 02:40:12;;;;;;;6.57;5.97;;;;;;;;;;5056339;28;20235;-54
2022/06/12 02:42:43;;;;;;;5.15;4.72;;;;;;;;;;5063651;28;20388;-53
2022/06/12 02:45:11;;;;;;;6.88;6.28;;;;;;;;;;5057698;28;20720;-53
2022/06/12 02:47:38;;;;;;;6.72;6.20;;;;;;;;;;5055238;28;20238;-53
2022/06/12 02:50:07;;;;;;;7.53;6.45;;;;;;;;;;5060745;28;20729;-53
2022/06/12 02:52:37;;;;;;;7.40;6.00;;;;;;;;;;5056057;28;20686;-53
2022/06/12 02:55:11;;;;;;;5.78;5.10;;;;;;;;;;5051258;28;20231;-53
2022/06/12 02:57:40;;;;;;;7.47;5.80;;;;;;;;;;5060975;28;20239;-54
2022/06/12 03:00:12;;;;;;;9.95;5.75;;;;;;;;;;5065178;28;20237;-54
2022/06/12 03:02:43;;;;;;;6.35;5.85;;;;;;;;;;5056566;28;20235;-54
2022/06/12 03:05:13;;;;;;;7.65;5.95;;;;;;;;;;5063449;28;20705;-53
2022/06/12 03:07:40;;;;;;;7.22;6.55;;;;;;;;;;5063740;28;20246;-53
2022/06/12 03:10:08;;;;;;;6.85;6.25;;;;;;;;;;5064492;28;20713;-53
2022/06/12 03:12:34;;;;;;;6.90;6.20;;;;;;;;;;5061861;28;20231;-53
2022/06/12 03:15:01;;;;;;;7.03;6.25;;;;;;;;;;5065533;28;20606;-53
2022/06/12 03:17:28;;;;;;;7.50;6.80;;;;;;;;;;5064517;28;20231;-54
2022/06/12 03:19:56;;;;;;;6.45;5.85;;;;;;;;;;5063298;28;20324;-53
2022/06/12 03:22:33;;;;;;;7.15;6.53;;;;;;;;;;5056902;28;20239;-53
2022/06/12 03:25:06;;;;;;;6.80;5.78;;;;;;;;;;5063721;28;20227;-54
2022/06/12 03:27:46;;;;;;;5.93;5.43;;;;;;;;;;5059912;28;20259;-53
2022/06/12 03:30:16;;;;;;;5.63;5.13;;;;;;;;;;5057726;28;20234;-53
2022/06/12 03:32:46;;;;;;;8.35;6.75;;;;;;;;;;5055607;28;20235;-54
2022/06/12 03:35:17;;;;;;;9.10;5.97;;;;;;;;;;5054525;28;20246;-54
2022/06/12 03:37:48;;;;;;;5.90;5.40;;;;;;;;;;5062226;28;20255;-53
2022/06/12 03:40:17;;;;;;;5.63;5.13;;;;;;;;;;5058581;28;20450;-53
2022/06/12 03:42:47;;;;;;;5.72;4.85;;;;;;;;;;5063538;28;20235;-53
2022/06/12 03:45:16;;;;;;;6.53;5.93;;;;;;;;;;5055071;28;20242;-53
2022/06/12 03:47:47;;;;;;;6.32;5.45;;;;;;;;;;5063802;28;20732;-55
2022/06/12 03:50:17;;;;;;;5.05;4.68;;;;;;;;;;5061783;28;20239;-55
2022/06/12 03:52:50;;;;;;;6.22;5.55;;;;;;;;;;5061606;28;20243;-53
2022/06/12 03:55:21;;;;;;;7.90;6.03;;;;;;;;;;5062079;28;20267;-53
2022/06/12 03:57:51;;;;;;;5.63;5.07;;;;;;;;;;5060837;28;20342;-53
2022/06/12 04:00:20;;;;;;;6.55;5.95;;;;;;;;;;5053231;28;20227;-53
2022/06/12 04:02:48;;;;;;;6.57;5.78;;;;;;;;;;5064064;28;20745;-53
2022/06/12 04:05:19;;;;;;;6.78;6.28;;;;;;;;;;5054810;28;20248;-53
2022/06/12 04:07:48;;;;;;;7.50;6.90;;;;;;;;;;5067040;28;20314;-53
2022/06/12 04:10:17;;;;;;;8.55;7.35;;;;;;;;;;5061387;28;20250;-53
2022/06/12 04:12:43;;;;;;;8.40;6.82;;;;;;;;;;5064918;28;20832;-54
2022/06/12 04:15:14;;;;;;;8.57;7.88;;;;;;;;;;5065726;28;20596;-53
2022/06/12 04:17:40;;;;;;;8.43;7.28;;;;;;;;;;5063173;28;20231;-54
2022/06/12 04:20:13;;;;;;;8.90;7.22;;;;;;;;;;5066563;28;20231;-53
2022/06/12 04:22:43;;;;;;;9.45;8.57;;;;;;;;;;5063160;28;20235;-53
2022/06/12 04:25:20;;;;;;;9.95;8.32;;;;;;;;;;5053381;28;20235;-54
2022/06/12 04:27:47;;;;;;;8.38;7.68;;;;;;;;;;5063625;28;20249;-54
2022/06/12 04:30:18;;;;;;;10.27;8.93;;;;;;;;;;5059655;28;20315;-54
2022/06/12 04:32:45;;;;;;;7.63;6.93;;;;;;;;;;5060012;28;20240;-53
2022/06/12 04:35:11;;;;;;;7.95;7.25;;;;;;;;;;5059661;28;20245;-69
2022/06/12 04:37:38;;;;;;;10.63;8.05;;;;;;;;;;5068615;28;20713;-54
2022/06/12 04:40:06;;;;;;;9.48;8.30;;;;;;;;;;5066110;28;20312;-54
2022/06/12 04:42:33;;;;;;;10.38;9.23;;;;;;;;;;5066480;28;20239;-54
2022/06/12 04:45:00;;;;;;;9.25;7.97;;;;;;;;;;5061069;28;20236;-54
2022/06/12 04:47:28;;;;;;;9.07;8.30;;;;;;;;;;5066114;28;20239;-54
2022/06/12 04:49:55;;;;;;;8.50;7.88;;;;;;;;;;5064961;28;20310;-54
2022/06/12 04:52:22;;;;;;;10.38;9.23;;;;;;;;;;5066421;28;20259;-54
2022/06/12 04:54:49;;;;;;;8.93;8.07;;;;;;;;;;5058369;28;20232;-58
2022/06/12 04:57:16;;;;;;;8.68;7.85;;;;;;;;;;5062516;28;20237;-54
2022/06/12 04:59:45;;;;;;;9.50;8.68;;;;;;;;;;5067603;28;20228;-54
2022/06/12 05:02:11;;;;;;;9.05;7.95;;;;;;;;;;5066561;28;20231;-55
2022/06/12 05:04:38;;;;;;;9.20;8.43;;;;;;;;;;5063723;28;20242;-55
2022/06/12 05:07:05;;;;;;;9.95;9.15;;;;;;;;;;5065918;28;20235;-54
2022/06/12 05:09:34;;;;;;;10.57;8.98;;;;;;;;;;5062774;28;20231;-54
2022/06/12 05:12:00;;;;;;;10.13;9.18;;;;;;;;;;5066566;28;20242;-54
2022/06/12 05:14:27;;;;;;;10.43;9.52;;;;;;;;;;5067448;28;20243;-55
2022/06/12 05:16:57;;;;;;;11.95;10.93;;;;;;;;;;5065854;28;20251;-55
2022/06/12 05:19:24;;;;;;;10.45;9.55;;;;;;;;;;5054951;28;20241;-54
2022/06/12 05:21:51;;;;;;;11.38;10.20;;;;;;;;;;5058568;28;20235;-54
2022/06/12 05:24:18;;;;;;;12.48;11.32;;;;;;;;;;5064143;28;20227;-55
2022/06/12 05:26:46;;;;;;;12.85;11.57;;;;;;;;;;5064056;28;20322;-54
2022/06/12 05:29:14;;;;;;;9.98;9.18;;;;;;;;;;5061263;28;20292;-54
2022/06/12 05:31:41;;;;;;;10.63;9.65;;;;;;;;;;5066905;28;20266;-54
2022/06/12 05:34:09;;;;;;;10.63;9.63;;;;;;;;;;5066121;28;20231;-54
2022/06/12 05:36:35;;;;;;;10.25;9.25;;;;;;;;;;5061138;28;20227;-53
2022/06/12 05:39:02;;;;;;;11.85;10.85;;;;;;;;;;5058533;28;20780;-54
2022/06/12 05:41:28;;;;;;;11.73;10.57;;;;;;;;;;5061297;28;20243;-55
2022/06/12 05:43:54;;;;;;;11.38;10.38;;;;;;;;;;5065586;28;20235;-55
2022/06/12 05:46:21;;;;;;;11.65;10.30;;;;;;;;;;5059624;28;20274;-54
2022/06/12 05:48:47;;;;;;;10.52;9.57;;;;;;;;;;5062422;28;20238;-54
2022/06/12 05:51:16;;;;;;;10.52;9.48;;;;;;;;;;5061601;28;20238;-53
2022/06/12 05:53:42;;;;;;;9.55;8.70;;;;;;;;;;5065201;28;20254;-55
2022/06/12 05:56:09;;;;;;;10.13;9.32;;;;;;;;;;5059195;28;20310;-54
2022/06/12 05:58:36;;;;;;;9.35;8.65;;;;;;;;;;5060331;28;20230;-54
2022/06/12 06:01:03;;;;;;;11.23;10.23;;;;;;;;;;5063261;28;20288;-54
2022/06/12 06:03:30;;;;;;;10.57;9.68;;;;;;;;;;5056658;28;20235;-54
2022/06/12 06:05:56;;;;;;;9.02;8.23;;;;;;;;;;5060465;28;20245;-54
2022/06/12 06:08:24;;;;;;;10.38;9.35;;;;;;;;;;5065924;28;20239;-54
2022/06/12 06:10:51;;;;;;;9.65;8.85;;;;;;;;;;5064435;28;20296;-58
2022/06/12 06:13:17;;;;;;;10.98;10.07;;;;;;;;;;5066282;28;20227;-54
2022/06/12 06:15:45;;;;;;;8.90;8.20;;;;;;;;;;5064049;28;20701;-54
2022/06/12 06:18:11;;;;;;;9.95;9.02;;;;;;;;;;5060220;28;20285;-54
2022/06/12 06:20:38;;;;;;;12.75;9.55;;;;;;;;;;5054323;28;20781;-53
2022/06/12 06:23:05;;;;;;;11.32;9.88;;;;;;;;;;5060682;28;20238;-53
2022/06/12 06:25:34;;;;;;;11.32;10.35;;;;;;;;;;5060473;28;20242;-53
2022/06/12 06:28:01;;;;;;;9.50;8.60;;;;;;;;;;5063892;28;20231;-54
2022/06/12 06:30:28;;;;;;;11.30;9.52;;;;;;;;;;5064720;28;20231;-55
2022/06/12 06:32:55;;;;;;;10.57;9.30;;;;;;;;;;5059403;28;20322;-54
2022/06/12 06:35:22;;;;;;;12.95;11.65;;;;;;;;;;5060518;28;20232;-54
2022/06/12 06:37:48;;;;;;;12.25;8.68;;;;;;;;;;5064244;28;20238;-54
2022/06/12 06:40:15;;;;;;;11.43;10.32;;;;;;;;;;5059681;28;20330;-55
2022/06/12 06:42:43;;;;;;;11.95;10.85;;;;;;;;;;5054070;28;20265;-54
2022/06/12 06:47:55;;;;;;;8.93;8.13;;;;;;;;;;5064442;28;21019;-54
2022/06/12 06:50:22;;;;;;;8.77;8.00;;;;;;;;;;5058328;28;20239;-54
2022/06/12 06:52:49;;;;;;;8.60;7.93;;;;;;;;;;5064702;28;20230;-53
2022/06/12 06:55:15;;;;;;;9.48;8.57;;;;;;;;;;5057111;28;20262;-54
2022/06/12 06:57:44;;;;;;;7.22;6.65;;;;;;;;;;5059511;28;20255;-54
2022/06/12 07:00:11;;;;;;;9.15;7.20;;;;;;;;;;5062448;28;20610;-55
2022/06/12 07:02:38;;;;;;;7.25;6.63;;;;;;;;;;5064543;28;20254;-54
2022/06/12 07:05:05;;;;;;;6.65;6.15;;;;;;;;;;5063392;28;20238;-54
2022/06/12 07:07:32;;;;;;;8.00;7.22;;;;;;;;;;5062911;28;20242;-53
2022/06/12 07:09:59;;;;;;;7.13;6.50;;;;;;;;;;5061720;28;21526;-53
2022/06/12 07:12:25;;;;;;;7.55;6.88;;;;;;;;;;5057343;28;20750;-54
2022/06/12 07:14:53;;;;;;;7.95;7.20;;;;;;;;;;5060611;28;20293;-54
2022/06/12 07:17:20;;;;;;;7.25;6.55;;;;;;;;;;5057548;28;20322;-53
2022/06/12 07:19:46;;;;;;;7.70;7.00;;;;;;;;;;5062398;28;20575;-54
2022/06/12 07:22:12;;;;;;;8.20;7.53;;;;;;;;;;5064255;28;20243;-53
2022/06/12 07:24:39;;;;;;;7.22;6.63;;;;;;;;;;5061155;28;20231;-53
2022/06/12 07:27:06;;;;;;;9.23;8.38;;;;;;;;;;5061436;28;20238;-53
2022/06/12 07:29:32;;;;;;;10.73;8.63;;;;;;;;;;5063667;28;20253;-53
2022/06/12 07:32:00;;;;;;;8.35;7.43;;;;;;;;;;5055453;28;20246;-53
2022/06/12 07:34:27;;;;;;;8.85;7.95;;;;;;;;;;5060669;28;20254;-54
2022/06/12 07:36:54;;;;;;;9.82;6.43;;;;;;;;;;5065793;28;20231;-53
2022/06/12 07:39:22;;;;;;;7.57;6.13;;;;;;;;;;5067879;28;20231;-54
2022/06/12 07:41:49;;;;;;;8.63;7.80;;;;;;;;;;5061353;28;20306;-54
2022/06/12 07:44:17;;;;;;;7.63;6.93;;;;;;;;;;5065195;28;20791;-54
2022/06/12 07:46:43;;;;;;;7.30;6.60;;;;;;;;;;5067051;28;20261;-54
2022/06/12 07:49:11;;;;;;;5.72;5.22;;;;;;;;;;5067051;28;20231;-53
2022/06/12 07:51:38;;;;;;;4.88;4.47;;;;;;;;;;5068062;28;20231;-54
2022/06/12 07:54:04;;;;;;;5.53;5.03;;;;;;;;;;5066484;28;20235;-53
2022/06/12 07:56:31;;;;;;;4.35;3.95;;;;;;;;;;5067497;28;20231;-54
2022/06/12 07:58:57;;;;;;;5.53;4.00;;;;;;;;;;5062227;28;20327;-53
2022/06/12 08:01:25;;;;;;;3.92;3.63;;;;;;;;;;5060039;28;20237;-54
2022/06/12 08:03:52;;;;;;;4.07;3.78;;;;;;;;;;5067426;28;20258;-55
2022/06/12 08:06:20;;;;;;;5.68;4.78;;;;;;;;;;5063727;28;20788;-53
2022/06/12 08:08:46;;;;;;;5.60;4.18;;;;;;;;;;5061856;28;20243;-53
2022/06/12 08:11:12;;;;;;;6.82;4.82;;;;;;;;;;5062755;28;20249;-54
2022/06/12 08:13:39;;;;;;;4.57;4.28;;;;;;;;;;5066649;28;20254;-54
2022/06/12 08:16:06;;;;;;;8.70;6.10;;;;;;;;;;5068757;28;20231;-54
2022/06/12 08:18:33;;;;;;;5.30;4.90;;;;;;;;;;5061056;28;20326;-54
2022/06/12 08:21:01;;;;;;;7.53;4.63;;;;;;;;;;5065949;28;20314;-54
2022/06/12 08:23:32;;;;;;;5.55;4.90;;;;;;;;;;5068551;28;20303;-54
2022/06/12 08:26:05;;;;;;;7.25;4.43;;;;;;;;;;5069945;28;20657;-54
2022/06/12 08:28:33;;;;;;;5.25;4.75;;;;;;;;;;5070025;28;20235;-53
2022/06/12 08:31:01;;;;;;;4.50;4.20;;;;;;;;;;5063919;28;20239;-54
2022/06/12 08:33:27;;;;;;;5.50;4.40;;;;;;;;;;5061287;28;20887;-53
2022/06/12 08:35:54;;;;;;;5.22;4.15;;;;;;;;;;5067916;28;20241;-53
2022/06/12 08:38:20;;;;;;;3.65;3.33;;;;;;;;;;5064004;28;20235;-54
2022/06/12 08:40:53;;;;;;;5.35;3.30;;;;;;;;;;5065398;28;20740;-55
2022/06/12 08:43:26;;;;;;;4.32;2.85;;;;;;;;;;5066673;28;20235;-54
2022/06/12 08:45:53;;;;;;;3.25;3.00;;;;;;;;;;5062973;28;20239;-54
2022/06/12 08:48:27;;;;;;;4.32;3.20;;;;;;;;;;5063732;28;20239;-54
2022/06/12 08:50:58;;;;;;;6.07;2.90;;;;;;;;;;5065469;28;20635;-53
2022/06/12 08:53:27;;;;;;;3.40;3.10;;;;;;;;;;5064987;28;20250;-53
2022/06/12 08:55:58;;;;;;;4.05;2.60;;;;;;;;;;5065563;28;20227;-54
2022/06/12 08:58:27;;;;;;;3.17;2.58;;;;;;;;;;5066149;28;20231;-54
2022/06/12 09:00:54;;;;;;;5.15;2.90;;;;;;;;;;5064421;28;20691;-53
2022/06/12 09:03:22;;;;;;;5.82;3.22;;;;;;;;;;5067496;28;20662;-55
2022/06/12 09:05:52;;;;;;;5.40;3.65;;;;;;;;;;5063629;28;20230;-54
2022/06/12 09:08:24;;;;;;;4.95;3.15;;;;;;;;;;5058660;28;20409;-54
2022/06/12 09:10:54;;;;;;;3.45;2.53;;;;;;;;;;5061705;28;20235;-54
2022/06/12 09:13:27;;;;;;;5.13;2.50;;;;;;;;;;5064484;28;20240;-53
2022/06/12 09:15:56;;;;;;;3.78;2.63;;;;;;;;;;5065102;28;20227;-54
2022/06/12 09:18:29;;;;;;;6.07;2.83;;;;;;;;;;5063338;28;20223;-55
2022/06/12 09:20:58;;;;;;;4.20;2.90;;;;;;;;;;5064348;28;20254;-54
2022/06/12 09:23:28;;;;;;;2.92;2.42;;;;;;;;;;5064489;28;20250;-54
2022/06/12 09:26:07;;;;;;;3.10;2.65;;;;;;;;;;5064893;28;20239;-54
2022/06/12 09:28:38;;;;;;;5.82;3.05;;;;;;;;;;5061023;28;20239;-54
2022/06/12 09:31:08;;;;;;;3.83;3.05;;;;;;;;;;5063757;28;20341;-54
2022/06/12 09:33:36;;;;;;;5.80;3.92;;;;;;;;;;5063566;28;20313;-53
2022/06/12 09:36:08;;;;;;;5.05;4.50;;;;;;;;;;5062868;28;20238;-53
2022/06/12 09:38:43;;;;;;;7.45;5.45;;;;;;;;;;5060176;28;20231;-54
2022/06/12 09:41:12;;;;;;;4.55;4.05;;;;;;;;;;5061175;28;20284;-53
2022/06/12 09:43:43;;;;;;;4.40;3.85;;;;;;;;;;5061064;28;20260;-54
2022/06/12 09:46:15;;;;;;;3.65;3.17;;;;;;;;;;5062464;28;20232;-54
2022/06/12 09:48:54;;;;;;;3.38;2.97;;;;;;;;;;5051834;28;20701;-54
2022/06/12 09:51:26;;;;;;;2.97;2.60;;;;;;;;;;5060704;28;20239;-54
2022/06/12 09:54:05;;;;;;;5.25;3.63;;;;;;;;;;5061345;28;20244;-54
2022/06/12 09:56:34;;;;;;;6.07;4.47;;;;;;;;;;5065231;28;20243;-55
2022/06/12 09:59:03;;;;;;;4.40;3.17;;;;;;;;;;5066780;28;20230;-54
2022/06/12 10:01:33;;;;;;;4.60;3.20;;;;;;;;;;5066516;28;20641;-55
2022/06/12 10:04:01;;;;;;;4.68;3.00;;;;;;;;;;5050190;28;20409;-54
2022/06/12 10:06:31;;;;;;;3.35;3.00;;;;;;;;;;5066238;28;20246;-54
2022/06/12 10:09:01;;;;;;;3.28;2.50;;;;;;;;;;5065995;28;20235;-54
2022/06/12 10:11:32;;;;;;;6.25;2.90;;;;;;;;;;5065948;28;20518;-55
2022/06/12 10:14:02;;;;;;;7.18;3.08;;;;;;;;;;5065325;28;20243;-55
2022/06/12 10:16:31;;;;;;;4.45;2.30;;;;;;;;;;5063850;28;20238;-55
2022/06/12 10:19:01;;;;;;;5.03;2.60;;;;;;;;;;5053218;28;20639;-55
2022/06/12 10:21:28;;;;;;;6.63;2.90;;;;;;;;;;5060685;28;20239;-54
2022/06/12 10:23:55;;;;;;;4.88;2.65;;;;;;;;;;5056445;28;20231;-54
2022/06/12 10:26:22;;;;;;;3.58;2.40;;;;;;;;;;5064861;28;20250;-54
2022/06/12 10:29:00;;;;;;;5.55;2.67;;;;;;;;;;5059468;28;20248;-54
2022/06/12 10:31:26;;;;;;;5.65;2.00;;;;;;;;;;5061479;28;20234;-55
2022/06/12 10:33:56;;;;;;;4.75;2.30;;;;;;;;;;5061105;28;20259;-55
2022/06/12 10:36:25;;;;;;;2.83;1.60;;;;;;;;;;5061441;28;21503;-55
2022/06/12 10:39:02;;;;;;;4.15;2.15;;;;;;;;;;5064299;28;20234;-53
2022/06/12 10:41:30;;;;;;;4.93;2.25;;;;;;;;;;5054815;28;20708;-55
2022/06/12 10:43:57;;;;;;;4.55;2.50;;;;;;;;;;5060433;28;20231;-55
2022/06/12 10:46:24;;;;;;;4.63;2.17;;;;;;;;;;5062916;28;20250;-54
2022/06/12 10:49:00;;;;;;;6.20;2.45;;;;;;;;;;5060862;28;20241;-54
2022/06/12 10:51:29;;;;;;;4.07;1.65;;;;;;;;;;5063361;28;20233;-54
2022/06/12 10:53:57;;;;;;;2.78;2.25;;;;;;;;;;5059466;28;20237;-54
2022/06/12 10:56:24;;;;;;;2.90;2.03;;;;;;;;;;5062131;28;20223;-54
2022/06/12 10:59:02;;;;;;;4.57;1.83;;;;;;;;;;5052664;28;20317;-55
2022/06/12 11:01:33;;;;;;;5.20;2.70;;;;;;;;;;5062478;28;20227;-53
2022/06/12 11:04:10;;;;;;;3.25;2.03;;;;;;;;;;5061156;28;20223;-54
2022/06/12 11:06:41;;;;;;;3.53;2.00;;;;;;;;;;5055360;28;20228;-55
2022/06/12 11:09:12;;;;;;;3.15;2.33;;;;;;;;;;5064715;28;20786;-56
2022/06/12 11:11:44;;;;;;;5.35;2.28;;;;;;;;;;5067607;28;20254;-54
2022/06/12 11:14:16;;;;;;;5.43;2.55;;;;;;;;;;5069614;28;20237;-54
2022/06/12 11:16:50;;;;;;;6.05;2.15;;;;;;;;;;5059181;28;20234;-54
2022/06/12 11:19:31;;;;;;;4.68;2.05;;;;;;;;;;5067559;28;20262;-53
2022/06/12 11:22:04;;;;;;;3.17;2.10;;;;;;;;;;5064193;28;20235;-54
2022/06/12 11:24:33;;;;;;;6.32;2.50;;;;;;;;;;5066381;28;20238;-54
2022/06/12 11:27:09;;;;;;;4.18;2.10;;;;;;;;;;5066389;28;20227;-55
2022/06/12 11:29:44;;;;;;;4.68;1.77;;;;;;;;;;5062076;28;20239;-55
2022/06/12 11:32:16;;;;;;;6.32;2.22;;;;;;;;;;5045966;28;20234;-55
2022/06/12 11:34:50;;;;;;;5.88;2.45;;;;;;;;;;5065681;28;20231;-54
2022/06/12 11:37:24;;;;;;;6.70;2.05;;;;;;;;;;5067159;28;20239;-56
2022/06/12 11:39:55;;;;;;;4.38;1.85;;;;;;;;;;5066344;28;20586;-55
2022/06/12 11:42:28;;;;;;;3.05;2.03;;;;;;;;;;5064338;28;20247;-55
2022/06/12 11:45:01;;;;;;;4.55;2.20;;;;;;;;;;5057200;28;20245;-54
2022/06/12 11:47:34;;;;;;;9.63;2.45;;;;;;;;;;5066348;28;20239;-54
2022/06/12 11:50:07;;;;;;;5.15;2.83;;;;;;;;;;5060313;28;20246;-55
2022/06/12 11:52:39;;;;;;;3.97;2.17;;;;;;;;;;5064021;28;20262;-55
2022/06/12 11:55:23;;;;;;;3.55;2.70;;;;;;;;;;5064255;28;20609;-54
2022/06/12 11:57:57;;;;;;;5.18;2.45;;;;;;;;;;5061338;28;20603;-55
2022/06/12 12:00:28;;;;;;;5.63;2.60;;;;;;;;;;5064801;28;20239;-55
2022/06/12 12:03:00;;;;;;;4.07;2.60;;;;;;;;;;5055702;28;20239;-55
2022/06/12 12:05:37;;;;;;;5.82;2.80;;;;;;;;;;5065648;28;20231;-54
2022/06/12 12:08:08;;;;;;;7.07;3.20;;;;;;;;;;5065773;28;20226;-54
2022/06/12 12:10:45;;;;;;;6.30;2.53;;;;;;;;;;5065532;28;20238;-55
2022/06/12 12:13:14;;;;;;;5.28;2.20;;;;;;;;;;5064744;28;20245;-53
2022/06/12 12:15:44;;;;;;;3.53;2.45;;;;;;;;;;5064264;28;20716;-54
2022/06/12 12:18:22;;;;;;;5.55;2.90;;;;;;;;;;5064112;28;20548;-54
2022/06/12 12:20:51;;;;;;;3.20;2.03;;;;;;;;;;5061320;28;20223;-54
2022/06/12 12:23:21;;;;;;;4.07;2.50;;;;;;;;;;5061522;28;20243;-55
2022/06/12 12:25:49;;;;;;;4.60;2.35;;;;;;;;;;5061445;28;20227;-54
2022/06/12 12:28:20;;;;;;;8.00;3.67;;;;;;;;;;5063192;28;20235;-55
2022/06/12 12:30:47;;;;;;;4.60;1.98;;;;;;;;;;5063864;28;20239;-55
2022/06/12 12:33:15;;;;;;;4.70;2.50;;;;;;;;;;5061783;28;20922;-55
2022/06/12 12:41:14;;;;;;;2.25;1.90;;;;;;;;;;5066439;28;20234;-55
2022/06/12 12:43:50;;;;;;;3.75;2.30;;;;;;;;;;5063668;28;20227;-55
2022/06/12 12:46:17;;;;;;;3.65;2.20;;;;;;;;;;5066933;28;20250;-54
2022/06/12 12:48:44;;;;;;;4.63;2.15;;;;;;;;;;5059864;28;20227;-55
2022/06/12 12:51:11;;;;;;;2.70;1.70;;;;;;;;;;5064150;28;20227;-55
2022/06/12 12:53:39;;;;;;;5.57;2.50;;;;;;;;;;5065767;28;20235;-56
2022/06/12 12:56:07;;;;;;;2.85;1.75;;;;;;;;;;5061650;28;20234;-55
2022/06/12 12:58:35;;;;;;;8.85;4.65;;;;;;;;;;5064112;28;20265;-55
2022/06/12 13:01:03;;;;;;;7.47;2.72;;;;;;;;;;5062409;28;20231;-56
2022/06/12 13:03:30;;;;;;;3.92;2.28;;;;;;;;;;5064295;28;20301;-54
2022/06/12 13:06:01;;;;;;;6.70;2.55;;;;;;;;;;5058838;28;20239;-54
2022/06/12 13:08:40;;;;;;;5.97;2.58;;;;;;;;;;5063860;28;20231;-54
2022/06/12 13:11:13;;;;;;;8.63;2.47;;;;;;;;;;5065281;28;20245;-54
2022/06/12 13:13:44;;;;;;;4.38;2.13;;;;;;;;;;5060039;28;20233;-51
2022/06/12 13:16:16;;;;;;;4.95;2.35;;;;;;;;;;5063039;28;20238;-51
2022/06/12 13:18:54;;;;;;;2.33;1.67;;;;;;;;;;5064245;28;20227;-52
2022/06/12 13:21:24;;;;;;;3.08;2.13;;;;;;;;;;5062027;28;20235;-51
2022/06/12 13:24:11;;;;;;;2.47;1.90;;;;;;;;;;5062740;28;20701;-52
2022/06/12 13:26:41;;;;;;;3.08;2.20;;;;;;;;;;5063346;28;20740;-52
2022/06/12 13:29:13;;;;;;;4.72;2.30;;;;;;;;;;5062715;28;20733;-52
2022/06/12 13:31:40;;;;;;;8.40;2.45;;;;;;;;;;5060467;28;20227;-52
2022/06/12 13:34:06;;;;;;;3.75;2.20;;;;;;;;;;5062601;28;20701;-51
2022/06/12 13:36:34;;;;;;;5.38;2.17;;;;;;;;;;5062388;28;20231;-52
2022/06/12 13:39:02;;;;;;;8.60;2.95;;;;;;;;;;5060832;28;20219;-52
2022/06/12 13:41:33;;;;;;;7.90;4.45;;;;;;;;;;5062310;28;20748;-52
2022/06/12 13:44:20;;;;;;;4.88;3.08;;;;;;;;;;5062817;28;20235;-53
2022/06/12 13:46:46;;;;;;;3.45;2.10;;;;;;;;;;5054134;28;20713;-51
2022/06/12 13:49:15;;;;;;;6.13;2.17;;;;;;;;;;5042776;28;20250;-51
2022/06/12 13:51:45;;;;;;;3.22;1.88;;;;;;;;;;5047031;28;20234;-51
2022/06/12 13:54:14;;;;;;;2.78;1.88;;;;;;;;;;5060632;28;20296;-51
2022/06/12 13:56:42;;;;;;;2.28;1.70;;;;;;;;;;5060093;28;20310;-51
2022/06/12 13:59:14;;;;;;;3.10;2.25;;;;;;;;;;5064987;28;20255;-51
2022/06/12 14:01:41;;;;;;;8.85;3.78;;;;;;;;;;5064933;28;20235;-51
2022/06/12 14:04:08;;;;;;;8.60;2.45;;;;;;;;;;5064246;28;20310;-51
2022/06/12 14:06:38;;;;;;;3.95;2.20;;;;;;;;;;5061602;28;20235;-51
2022/06/12 14:09:06;;;;;;;5.38;2.30;;;;;;;;;;5063331;28;20245;-51
2022/06/12 14:11:33;;;;;;;6.63;2.13;;;;;;;;;;5061799;28;20234;-52
2022/06/12 14:14:00;;;;;;;1.75;1.38;;;;;;;;;;5063228;28;20721;-52
2022/06/12 14:16:28;;;;;;;4.40;2.10;;;;;;;;;;5059990;28;20727;-52
2022/06/12 14:18:57;;;;;;;5.60;3.58;;;;;;;;;;5061241;28;20257;-51
2022/06/12 14:21:26;;;;;;;10.32;3.80;;;;;;;;;;5061317;28;20242;-52
2022/06/12 14:23:54;;;;;;;4.55;3.05;;;;;;;;;;5063644;28;20320;-50
2022/06/12 14:26:24;;;;;;;6.20;4.10;;;;;;;;;;5059829;28;20243;-52
2022/06/12 14:28:50;;;;;;;4.43;3.83;;;;;;;;;;5063441;28;20235;-52
2022/06/12 14:31:22;;;;;;;6.30;3.38;;;;;;;;;;5063468;28;20234;-52
2022/06/12 14:33:54;;;;;;;7.05;3.72;;;;;;;;;;5062464;28;20249;-52
2022/06/12 14:36:35;;;;;;;5.95;2.38;;;;;;;;;;5061476;28;20239;-52
2022/06/12 14:39:21;;;;;;;3.63;1.95;;;;;;;;;;5058262;28;20224;-52
2022/06/12 14:41:48;;;;;;;3.30;2.13;;;;;;;;;;5061733;28;20707;-52
2022/06/12 14:44:15;;;;;;;3.55;2.08;;;;;;;;;;5060644;28;20327;-52
2022/06/12 14:46:42;;;;;;;3.67;2.35;;;;;;;;;;5064622;28;20728;-53
2022/06/12 14:49:14;;;;;;;8.43;2.70;;;;;;;;;;5052845;28;20318;-52
2022/06/12 14:51:41;;;;;;;5.05;1.98;;;;;;;;;;5060942;28;20234;-51
2022/06/12 14:54:07;;;;;;;3.63;1.70;;;;;;;;;;5063938;28;20942;-51
2022/06/12 14:56:33;;;;;;;3.35;2.08;;;;;;;;;;5062911;28;20234;-52
2022/06/12 14:59:00;;;;;;;5.32;1.65;;;;;;;;;;5060775;28;20234;-52
2022/06/12 15:01:26;;;;;;;3.28;1.65;;;;;;;;;;5064061;28;20257;-66
2022/06/12 15:03:54;;;;;;;3.65;2.20;;;;;;;;;;5063955;28;20720;-52
2022/06/12 15:06:21;;;;;;;2.55;2.22;;;;;;;;;;5060090;28;20243;-52